Temp: 8.6°C   Baro: 995.0mb
  Wind: 4.0mph   Dir: SSW (209°)
  Rain: 0.0mm (0.0mm/hr)
  Solar: 0W/m2  Hum: 88%
 
Bath Spa Weather Station Historical Data
Daily Summary for September 14, 2020 Units:  Metric    English   Both
Daily Weekly Monthly Yearly Custom
  High: Low: Average:
Temperature: 28.1 °C 9.6 °C 18.6 °C
Dew Point: 18.9 °C 8.8 °C 13.4 °C
Humidity: 93% 43.4% 72%
Wind Speed: 12.6km/h 0km/h 2.1km/h
Wind Gust: 20.9km/h - -
Wind- - SE
Pressure: 1022.9 hPa 1017.8 hPa -
Precipitation: 0 mm    
Historical Graphs
 
 
Tabular Data for September 14, 2020
Time Temperature Dew Point Pressure Wind Wind Speed Wind Gust Humidity Rainfall Rate (Hourly) solar
00:04 14.4 °C 12.6 °C 1022.9 hPa Calm     86% 0 mm 0 W/m2
00:09 14.3 °C 12.5 °C 1022.6 hPa Calm     86% 0 mm 0 W/m2
00:14 14.3 °C 12.5 °C 1022.6 hPa Calm     86% 0 mm 0 W/m2
00:19 14.2 °C 12.4 °C 1022.6 hPa Calm     86% 0 mm 0 W/m2
00:24 14.2 °C 12.4 °C 1022.6 hPa Calm     86% 0 mm 0 W/m2
00:29 14.1 °C 12.3 °C 1022.6 hPa Calm     86% 0 mm 0 W/m2
00:34 14.1 °C 12.3 °C 1022.6 hPa Calm     86% 0 mm 0 W/m2
00:39 13.9 °C 12.1 °C 1022.6 hPa Calm     86% 0 mm 0 W/m2
00:43 13.7 °C 11.9 °C 1022.6 hPa Calm     86% 0 mm 0 W/m2
00:49 13.6 °C 11.9 °C 1022.6 hPa Calm     86.6% 0 mm 0 W/m2
00:54 13.6 °C 12 °C 1022.6 hPa Calm     87% 0 mm 0 W/m2
00:59 13.5 °C 11.9 °C 1022.6 hPa Calm     87% 0 mm 0 W/m2
01:04 13.4 °C 11.8 °C 1022.6 hPa Calm     87% 0 mm 0 W/m2
01:09 13.3 °C 11.7 °C 1022.6 hPa Calm     87% 0 mm 0 W/m2
01:14 13.2 °C 11.6 °C 1022.6 hPa Calm     87% 0 mm 0 W/m2
01:19 13.1 °C 11.6 °C 1022.6 hPa Calm     87.4% 0 mm 0 W/m2
01:23 13 °C 11.6 °C 1022.6 hPa Calm     88% 0 mm 0 W/m2
01:29 13 °C 11.6 °C 1022.6 hPa Calm     88% 0 mm 0 W/m2
01:34 12.9 °C 11.5 °C 1022.6 hPa Calm     88% 0 mm 0 W/m2
01:39 12.8 °C 11.4 °C 1022.6 hPa Calm     88% 0 mm 0 W/m2
01:44 12.8 °C 11.4 °C 1022.2 hPa Calm     88% 0 mm 0 W/m2
01:49 12.8 °C 11.4 °C 1022.2 hPa Calm     88% 0 mm 0 W/m2
01:54 12.7 °C 11.2 °C 1022.2 hPa Calm     88% 0 mm 0 W/m2
01:59 12.6 °C 11.2 °C 1022.2 hPa SSE 0.3 km/h 3.2 km/h 88% 0 mm 0 W/m2
02:04 12.4 °C 11.1 °C 1022.2 hPa Calm   3.2 km/h 88% 0 mm 0 W/m2
02:09 12.3 °C 10.9 °C 1022.2 hPa Calm     88.6% 0 mm 0 W/m2
02:14 12.3 °C 11 °C 1022.2 hPa Calm     89% 0 mm 0 W/m2
02:19 12.2 °C 10.9 °C 1022.2 hPa Calm     89% 0 mm 0 W/m2
02:24 12.2 °C 10.9 °C 1022.2 hPa Calm     89% 0 mm 0 W/m2
02:29 12.1 °C 10.8 °C 1022.2 hPa Calm     89% 0 mm 0 W/m2
02:34 12.1 °C 10.8 °C 1022.2 hPa Calm     89% 0 mm 0 W/m2
02:39 12 °C 10.7 °C 1022.2 hPa Calm     89% 0 mm 0 W/m2
02:44 11.8 °C 10.6 °C 1022.2 hPa Calm     89% 0 mm 0 W/m2
02:49 11.8 °C 10.5 °C 1022.2 hPa Calm     89% 0 mm 0 W/m2
02:54 11.8 °C 10.5 °C 1022.2 hPa Calm     89% 0 mm 0 W/m2
02:59 11.7 °C 10.4 °C 1022.2 hPa Calm     89% 0 mm 0 W/m2
03:04 11.7 °C 10.4 °C 1022.2 hPa Calm     89.2% 0 mm 0 W/m2
03:08 11.7 °C 10.5 °C 1021.9 hPa Calm     89.8% 0 mm 0 W/m2
03:14 11.6 °C 10.5 °C 1021.9 hPa Calm     90% 0 mm 0 W/m2
03:19 11.6 °C 10.4 °C 1021.9 hPa Calm     90% 0 mm 0 W/m2
03:24 11.4 °C 10.3 °C 1021.9 hPa Calm     90% 0 mm 0 W/m2
03:29 11.3 °C 10.2 °C 1021.9 hPa Calm     90% 0 mm 0 W/m2
03:34 11.2 °C 10.1 °C 1021.9 hPa Calm     90% 0 mm 0 W/m2
03:39 11.2 °C 10.1 °C 1021.9 hPa Calm     90% 0 mm 0 W/m2
03:44 11.2 °C 10.1 °C 1021.9 hPa Calm     90% 0 mm 0 W/m2
03:49 11.1 °C 10 °C 1021.9 hPa Calm     90% 0 mm 0 W/m2
03:54 11.1 °C 9.9 °C 1021.6 hPa Calm     90% 0 mm 0 W/m2
03:59 10.9 °C 9.8 °C 1021.6 hPa Calm     90% 0 mm 0 W/m2
04:04 10.9 °C 9.8 °C 1021.9 hPa Calm     90% 0 mm 0 W/m2
04:09 10.8 °C 9.7 °C 1021.9 hPa Calm     90% 0 mm 0 W/m2
04:13 10.7 °C 9.7 °C 1021.6 hPa Calm     90% 0 mm 0 W/m2
04:19 10.8 °C 9.7 °C 1021.6 hPa Calm     90% 0 mm 0 W/m2
04:24 10.8 °C 9.8 °C 1021.6 hPa Calm     90.6% 0 mm 0 W/m2
04:29 10.7 °C 9.8 °C 1021.6 hPa Calm     91% 0 mm 0 W/m2
04:34 10.7 °C 9.8 °C 1021.6 hPa Calm     91% 0 mm 0 W/m2
04:39 10.7 °C 9.8 °C 1021.6 hPa Calm     91% 0 mm 0 W/m2
04:44 10.7 °C 9.8 °C 1021.6 hPa Calm     91% 0 mm 0 W/m2
04:49 10.8 °C 9.9 °C 1021.6 hPa Calm     91% 0 mm 0 W/m2
04:54 10.8 °C 9.9 °C 1021.6 hPa Calm     91% 0 mm 0 W/m2
04:59 10.7 °C 9.8 °C 1021.2 hPa Calm     91% 0 mm 0 W/m2
05:04 10.6 °C 9.7 °C 1021.2 hPa Calm     91% 0 mm 0 W/m2
05:09 10.4 °C 9.6 °C 1021.2 hPa Calm     91% 0 mm 0 W/m2
05:14 10.5 °C 9.6 °C 1021.2 hPa Calm     91% 0 mm 0 W/m2
05:19 10.6 °C 9.6 °C 1021.2 hPa Calm     91% 0 mm 0 W/m2
05:24 10.4 °C 9.5 °C 1021.2 hPa Calm     91% 0 mm 0 W/m2
05:29 10.3 °C 9.4 °C 1021.2 hPa Calm     91% 0 mm 0 W/m2
05:34 10.3 °C 9.4 °C 1020.9 hPa SSE 1 km/h 4.8 km/h 91% 0 mm 0 W/m2
05:39 10.4 °C 9.5 °C 1020.9 hPa SSE 1 km/h 3.2 km/h 91% 0 mm 0 W/m2
05:44 10.4 °C 9.5 °C 1020.9 hPa Calm   1.6 km/h 91% 0 mm 0 W/m2
05:49 10.4 °C 9.7 °C 1020.9 hPa Calm     91.8% 0 mm 0 W/m2
05:54 10.3 °C 9.7 °C 1021.2 hPa Calm     92% 0 mm 0 W/m2
05:59 10.3 °C 9.6 °C 1021.2 hPa Calm     92% 0 mm 0 W/m2
06:04 10.2 °C 9.3 °C 1020.9 hPa Calm     91% 0 mm 0 W/m2
06:09 10.1 °C 9.3 °C 1020.9 hPa Calm     91.6% 0 mm 0 W/m2
06:14 10.1 °C 9.4 °C 1021.2 hPa SSE 0.3 km/h 3.2 km/h 92% 0 mm 0 W/m2
06:19 10.1 °C 9.4 °C 1021.2 hPa SSE 1 km/h 3.2 km/h 92% 0 mm 0 W/m2
06:24 9.9 °C 9.3 °C 1021.2 hPa SSE 0.8 km/h 3.2 km/h 92% 0 mm 0 W/m2
06:29 9.9 °C 9.2 °C 1021.2 hPa Calm   1.6 km/h 92% 0 mm 0 W/m2
06:34 9.8 °C 9.1 °C 1021.2 hPa SSE 0.3 km/h 3.2 km/h 92% 0 mm 0 W/m2
06:39 9.8 °C 9.1 °C 1021.2 hPa Calm   3.2 km/h 92% 0 mm 0 W/m2
06:44 9.7 °C 9 °C 1021.2 hPa Calm     92% 0 mm 0 W/m2
06:49 9.7 °C 9 °C 1021.2 hPa Calm     92% 0 mm 0 W/m2
06:54 9.7 °C 8.9 °C 1021.2 hPa Calm     92% 0 mm 5 W/m2
06:59 9.6 °C 8.9 °C 1021.2 hPa Calm     92% 0 mm 9 W/m2
07:04 9.6 °C 8.9 °C 1021.2 hPa Calm     92% 0 mm 11 W/m2
07:09 9.6 °C 8.9 °C 1021.2 hPa Calm   1.6 km/h 92% 0 mm 14 W/m2
07:14 9.6 °C 8.9 °C 1021.2 hPa Calm     92% 0 mm 18 W/m2
07:19 9.6 °C 8.8 °C 1021.2 hPa Calm     92% 0 mm 21 W/m2
07:24 9.6 °C 8.9 °C 1021.2 hPa Calm     92% 0 mm 23 W/m2
07:29 9.7 °C 8.9 °C 1021.6 hPa Calm   1.6 km/h 92% 0 mm 25 W/m2
07:34 9.7 °C 9 °C 1021.6 hPa Calm   1.6 km/h 92% 0 mm 28 W/m2
07:39 9.8 °C 9.1 °C 1021.6 hPa Calm     92% 0 mm 32 W/m2
07:44 9.9 °C 9.3 °C 1021.2 hPa Calm     92.4% 0 mm 33 W/m2
07:49 10.3 °C 9.7 °C 1021.2 hPa Calm     93% 0 mm 37 W/m2
07:54 10.6 °C 9.9 °C 1021.2 hPa Calm     93% 0 mm 39 W/m2
07:59 10.7 °C 10.2 °C 1021.2 hPa Calm     93% 0 mm 44 W/m2
08:04 10.8 °C 10.2 °C 1021.6 hPa Calm     92.6% 0 mm 49 W/m2
08:09 11 °C 10.3 °C 1021.6 hPa SSE 0.6 km/h 4.8 km/h 92.6% 0 mm 60 W/m2
08:14 11.2 °C 10.5 °C 1021.6 hPa SSE 1.3 km/h 4.8 km/h 92.4% 0 mm 72 W/m2
08:19 11.4 °C 10.7 °C 1021.6 hPa SSE 0.3 km/h 3.2 km/h 92.4% 0 mm 84 W/m2
08:24 11.7 °C 10.8 °C 1021.6 hPa SSE 0.3 km/h 4.8 km/h 92% 0 mm 98 W/m2
08:29 11.9 °C 11.1 °C 1021.6 hPa Calm   3.2 km/h 92% 0 mm 113 W/m2
08:34 12.2 °C 11.3 °C 1021.6 hPa SSE 1.4 km/h 6.4 km/h 92% 0 mm 128 W/m2
08:39 12.2 °C 11.3 °C 1021.6 hPa SSE 2.6 km/h 6.4 km/h 91.4% 0 mm 142 W/m2
08:44 12.4 °C 11.5 °C 1021.6 hPa SSE 1.4 km/h 4.8 km/h 91% 0 mm 155 W/m2
08:49 12.6 °C 11.6 °C 1021.6 hPa SSE 1 km/h 4.8 km/h 90.6% 0 mm 169 W/m2
08:54 12.8 °C 11.7 °C 1021.6 hPa SSE 1.1 km/h 4.8 km/h 90% 0 mm 181 W/m2
08:59 13.1 °C 11.8 °C 1021.6 hPa Calm   4.8 km/h 89% 0 mm 195 W/m2
09:04 13.7 °C 12.3 °C 1021.6 hPa SSE 0.6 km/h 8 km/h 88.8% 0 mm 209 W/m2
09:09 14.8 °C 13.3 °C 1021.6 hPa ENE 2.7 km/h 8 km/h 88% 0 mm 223 W/m2
09:14 15.6 °C 13.9 °C 1021.6 hPa ESE 1.9 km/h 11.3 km/h 86.6% 0 mm 237 W/m2
09:19 16.3 °C 14.2 °C 1021.6 hPa SE 0.6 km/h 6.4 km/h 84.4% 0 mm 255 W/m2
09:24 16.7 °C 14.1 °C 1021.6 hPa ESE 1.9 km/h 6.4 km/h 82.2% 0 mm 269 W/m2
09:29 16.9 °C 14.1 °C 1021.6 hPa East 2.6 km/h 8 km/h 80.8% 0 mm 283 W/m2
09:34 17.1 °C 14.1 °C 1021.6 hPa ESE 3.5 km/h 9.7 km/h 80% 0 mm 295 W/m2
09:39 17.3 °C 14.2 °C 1021.6 hPa ESE 2.1 km/h 12.9 km/h 79.2% 0 mm 309 W/m2
09:44 17.5 °C 14.2 °C 1021.6 hPa SE 1.9 km/h 8 km/h 78.2% 0 mm 329 W/m2
09:49 17.4 °C 14.1 °C 1021.6 hPa SE 4.5 km/h 11.3 km/h 78% 0 mm 343 W/m2
09:54 17.7 °C 14.2 °C 1021.6 hPa East 4 km/h 9.7 km/h 78% 0 mm 359 W/m2
09:59 17.8 °C 14.3 °C 1021.6 hPa ESE 3.9 km/h 12.9 km/h 77.2% 0 mm 374 W/m2
10:04 18.3 °C 14.6 °C 1021.6 hPa SE 4 km/h 8 km/h 76.4% 0 mm 387 W/m2
10:09 18.2 °C 14.3 °C 1021.2 hPa SE 3.2 km/h 9.7 km/h 75.3% 0 mm 401 W/m2
10:14 18.5 °C 14.6 °C 1021.2 hPa ESE 3.1 km/h 9.7 km/h 75.6% 0 mm 415 W/m2
10:19 18.7 °C 14.7 °C 1021.2 hPa ESE 3.5 km/h 11.3 km/h 75% 0 mm 427 W/m2
10:24 19 °C 14.7 °C 1021.2 hPa ESE 5.8 km/h 14.5 km/h 74.2% 0 mm 439 W/m2
10:29 19.4 °C 15.1 °C 1021.2 hPa East 5.8 km/h 12.9 km/h 73.6% 0 mm 448 W/m2
10:34 19.7 °C 15.1 °C 1021.2 hPa ESE 5.3 km/h 11.3 km/h 72.4% 0 mm 459 W/m2
10:39 20 °C 15.3 °C 1021.2 hPa East 3.9 km/h 12.9 km/h 72% 0 mm 468 W/m2
10:44 20.2 °C 15.3 °C 1021.2 hPa ESE 5.8 km/h 12.9 km/h 71.4% 0 mm 476 W/m2
10:49 20.3 °C 15.3 °C 1021.2 hPa East 2.9 km/h 9.7 km/h 70.8% 0 mm 489 W/m2
10:53 20.4 °C 15.4 °C 1021.2 hPa ESE 3.5 km/h 11.3 km/h 71% 0 mm 494 W/m2
10:59 20.6 °C 15.4 °C 1021.2 hPa SE 2.7 km/h 11.3 km/h 70.4% 0 mm 503 W/m2
11:04 20.7 °C 15.6 °C 1021.2 hPa ESE 3.2 km/h 9.7 km/h 70.4% 0 mm 512 W/m2
11:09 20.9 °C 15.7 °C 1021.2 hPa ESE 6.6 km/h 11.3 km/h 69.8% 0 mm 519 W/m2
11:14 21.5 °C 16 °C 1021.2 hPa East 3.9 km/h 12.9 km/h 68.8% 0 mm 527 W/m2
11:19 21.7 °C 15.9 °C 1021.2 hPa ESE 2.6 km/h 8 km/h 67.6% 0 mm 538 W/m2
11:24 22.1 °C 16.2 °C 1020.9 hPa ESE 4.7 km/h 9.7 km/h 67.2% 0 mm 545 W/m2
11:29 22.2 °C 16.1 °C 1020.9 hPa SE 1.9 km/h 9.7 km/h 66.4% 0 mm 555 W/m2
11:34 21.9 °C 16.2 °C 1021.2 hPa South 3.9 km/h 8 km/h 67.8% 0 mm 561 W/m2
11:39 21.8 °C 16.9 °C 1021.2 hPa East 4.7 km/h 9.7 km/h 71.2% 0 mm 568 W/m2
11:44 22.3 °C 17 °C 1021.2 hPa East 4 km/h 11.3 km/h 70% 0 mm 575 W/m2
11:49 22.6 °C 17.3 °C 1021.2 hPa East 2.3 km/h 11.3 km/h 69.8% 0 mm 578 W/m2
11:54 22.8 °C 17.3 °C 1020.9 hPa SE 2.3 km/h 6.4 km/h 69.2% 0 mm 587 W/m2
11:59 23.1 °C 17.5 °C 1020.9 hPa ESE 4.7 km/h 11.3 km/h 68.6% 0 mm 591 W/m2
12:04 23 °C 17.6 °C 1020.9 hPa East 5.3 km/h 11.3 km/h 69.2% 0 mm 594 W/m2
12:09 23.6 °C 17.9 °C 1020.9 hPa ENE 1.9 km/h 11.3 km/h 68.4% 0 mm 601 W/m2
12:14 23.9 °C 18.1 °C 1020.9 hPa ENE 1.4 km/h 8 km/h 67.8% 0 mm 605 W/m2
12:19 23.9 °C 18.1 °C 1020.9 hPa ESE 3.9 km/h 12.9 km/h 67.6% 0 mm 608 W/m2
12:24 24.1 °C 18.2 °C 1020.9 hPa East 2.9 km/h 6.4 km/h 67.4% 0 mm 613 W/m2
12:29 24.2 °C 18.3 °C 1020.9 hPa East 6.1 km/h 14.5 km/h 67.8% 0 mm 617 W/m2
12:34 24.7 °C 18.5 °C 1020.5 hPa ESE 3.4 km/h 9.7 km/h 66.6% 0 mm 621 W/m2
12:39 24.6 °C 18.3 °C 1020.5 hPa SSE 1.3 km/h 8 km/h 66% 0 mm 622 W/m2
12:44 25.1 °C 18.7 °C 1020.5 hPa East 4.3 km/h 12.9 km/h 65.4% 0 mm 624 W/m2
12:49 25.4 °C 18.7 °C 1020.5 hPa East 4.3 km/h 11.3 km/h 64.3% 0 mm 626 W/m2
12:54 25.4 °C 18.7 °C 1020.5 hPa East 3.2 km/h 11.3 km/h 64.2% 0 mm 628 W/m2
12:59 25.9 °C 18.9 °C 1020.5 hPa East 1.9 km/h 9.7 km/h 63.2% 0 mm 631 W/m2
13:04 26.8 °C 18.7 °C 1020.5 hPa ENE 2.1 km/h 11.3 km/h 59.4% 0 mm 629 W/m2
13:09 27 °C 18.7 °C 1020.2 hPa NE 2.9 km/h 8 km/h 58.6% 0 mm 629 W/m2
13:14 27.3 °C 18.7 °C 1020.2 hPa East 3.2 km/h 11.3 km/h 57.8% 0 mm 633 W/m2
13:19 27.5 °C 18.5 °C 1020.2 hPa SE 4 km/h 11.3 km/h 56.4% 0 mm 636 W/m2
13:24 26.8 °C 17.8 °C 1020.2 hPa SSE 2.4 km/h 12.9 km/h 56.3% 0 mm 636 W/m2
13:29 26.8 °C 17.5 °C 1020.2 hPa East 3.9 km/h 11.3 km/h 55% 0 mm 633 W/m2
13:34 27.6 °C 18.3 °C 1020.2 hPa ESE 3.2 km/h 11.3 km/h 55.4% 0 mm 633 W/m2
13:39 27.4 °C 17.7 °C 1019.9 hPa SE 5.6 km/h 12.9 km/h 54% 0 mm 631 W/m2
13:44 27.1 °C 17.6 °C 1019.9 hPa SE 2.4 km/h 14.5 km/h 54.8% 0 mm 629 W/m2
13:48 27.8 °C 17.7 °C 1019.9 hPa ESE 4.3 km/h 12.9 km/h 52.8% 0 mm 628 W/m2
13:54 28.1 °C 17.4 °C 1019.9 hPa SSE 5.8 km/h 11.3 km/h 51% 0 mm 624 W/m2
13:59 27.2 °C 17.2 °C 1019.9 hPa ESE 5.6 km/h 11.3 km/h 52.8% 0 mm 628 W/m2
14:04 27.8 °C 17.2 °C 1019.5 hPa ESE 6.9 km/h 14.5 km/h 51.2% 0 mm 622 W/m2
14:09 27.3 °C 17.1 °C 1019.5 hPa ESE 5.1 km/h 9.7 km/h 52.4% 0 mm 617 W/m2
14:14 27.7 °C 17.1 °C 1019.5 hPa SE 3.5 km/h 11.3 km/h 51.2% 0 mm 613 W/m2
14:19 27.6 °C 16.8 °C 1019.5 hPa SSE 6 km/h 12.9 km/h 50.4% 0 mm 612 W/m2
14:24 26.9 °C 16.8 °C 1019.2 hPa SSE 5.3 km/h 11.3 km/h 52.4% 0 mm 605 W/m2
14:29 27.2 °C 16.8 °C 1019.2 hPa SSE 3.9 km/h 11.3 km/h 51.6% 0 mm 596 W/m2
14:34 27.2 °C 16.4 °C 1019.2 hPa SE 5.1 km/h 14.5 km/h 50.4% 0 mm 592 W/m2
14:39 27.7 °C 16.7 °C 1019.2 hPa SE 6.4 km/h 11.3 km/h 49.5% 0 mm 587 W/m2
14:44 27.5 °C 15.1 °C 1019.2 hPa SSE 8.5 km/h 16.1 km/h 45.4% 0 mm 585 W/m2
14:49 26.9 °C 14.2 °C 1019.2 hPa SSE 6.8 km/h 17.7 km/h 44.2% 0 mm 584 W/m2
14:54 26.9 °C 14.4 °C 1018.8 hPa SSE 6.9 km/h 12.9 km/h 45.2% 0 mm 578 W/m2
14:59 26.7 °C 13.8 °C 1018.8 hPa South 12.6 km/h 20.9 km/h 43.6% 0 mm 570 W/m2
15:04 26.6 °C 13.6 °C 1018.8 hPa South 7.1 km/h 19.3 km/h 43.4% 0 mm 566 W/m2
15:09 27.1 °C 14.1 °C 1018.8 hPa SSE 8 km/h 14.5 km/h 43.6% 0 mm 555 W/m2
15:14 27.3 °C 14.2 °C 1018.8 hPa SSE 6.4 km/h 12.9 km/h 43.5% 0 mm 550 W/m2
15:19 27.4 °C 14.3 °C 1018.8 hPa SE 5.3 km/h 11.3 km/h 43.6% 0 mm 543 W/m2
15:24 27.5 °C 14.4 °C 1018.8 hPa SE 9 km/h 14.5 km/h 43.6% 0 mm 534 W/m2
15:29 27.1 °C 14.2 °C 1018.8 hPa SSE 7.7 km/h 14.5 km/h 44% 0 mm 526 W/m2
15:34 27.1 °C 14.5 °C 1018.8 hPa SSE 5.8 km/h 12.9 km/h 44.8% 0 mm 519 W/m2
15:39 27.4 °C 14.7 °C 1018.8 hPa SSE 4.7 km/h 12.9 km/h 44.4% 0 mm 508 W/m2
15:44 27.6 °C 14.9 °C 1018.8 hPa SSE 5.3 km/h 17.7 km/h 44.8% 0 mm 499 W/m2
15:49 27.5 °C 14.5 °C 1018.8 hPa SSE 10 km/h 19.3 km/h 43.8% 0 mm 492 W/m2
15:54 27 °C 14.2 °C 1018.8 hPa SSE 8 km/h 14.5 km/h 44% 0 mm 476 W/m2
15:59 27.1 °C 14.2 °C 1018.5 hPa SE 4 km/h 14.5 km/h 44% 0 mm 466 W/m2
16:04 27.1 °C 14.2 °C 1018.5 hPa South 9.2 km/h 16.1 km/h 44% 0 mm 455 W/m2
16:09 26.9 °C 14.3 °C 1018.5 hPa South 7.1 km/h 14.5 km/h 44.8% 0 mm 446 W/m2
16:14 26.9 °C 14.2 °C 1018.5 hPa SSE 6.1 km/h 12.9 km/h 44.4% 0 mm 439 W/m2
16:19 27 °C 14.4 °C 1018.5 hPa South 5.3 km/h 17.7 km/h 44.8% 0 mm 429 W/m2
16:24 27.2 °C 14.7 °C 1018.5 hPa SSE 7.6 km/h 9.7 km/h 45% 0 mm 417 W/m2
16:29 27.2 °C 14.9 °C 1018.5 hPa SE 5.8 km/h 12.9 km/h 45.6% 0 mm 406 W/m2
16:34 27.1 °C 14.8 °C 1018.2 hPa SE 4.5 km/h 12.9 km/h 45.6% 0 mm 396 W/m2
16:39 27.3 °C 15.1 °C 1018.2 hPa ESE 6.4 km/h 16.1 km/h 46% 0 mm 381 W/m2
16:44 27.5 °C 15.3 °C 1018.2 hPa SE 7.9 km/h 14.5 km/h 45.8% 0 mm 371 W/m2
16:49 27.3 °C 15 °C 1018.2 hPa SE 7.2 km/h 14.5 km/h 45.8% 0 mm 357 W/m2
16:54 27.2 °C 15.1 °C 1018.2 hPa SSE 6 km/h 12.9 km/h 46.4% 0 mm 348 W/m2
16:59 27.2 °C 15.3 °C 1018.2 hPa SSE 6 km/h 16.1 km/h 47% 0 mm 332 W/m2
17:04 26.9 °C 14.9 °C 1018.2 hPa SSE 5.8 km/h 12.9 km/h 46.6% 0 mm 322 W/m2
17:09 26.9 °C 15.1 °C 1018.2 hPa SE 4.8 km/h 12.9 km/h 46.8% 0 mm 332 W/m2
17:14 27 °C 15 °C 1018.2 hPa SSE 6.9 km/h 11.3 km/h 46.6% 0 mm 297 W/m2
17:19 26.8 °C 14.9 °C 1018.2 hPa SSE 6.4 km/h 12.9 km/h 46.6% 0 mm 283 W/m2
17:24 26.8 °C 15 °C 1018.2 hPa SSE 5.8 km/h 9.7 km/h 47% 0 mm 272 W/m2
17:29 26.8 °C 15.1 °C 1018.2 hPa SE 4.2 km/h 11.3 km/h 47.2% 0 mm 260 W/m2
17:34 26.7 °C 15 °C 1018.2 hPa SE 4.8 km/h 9.7 km/h 47.3% 0 mm 246 W/m2
17:39 26.7 °C 15.2 °C 1018.2 hPa SSE 4.7 km/h 12.9 km/h 48% 0 mm 234 W/m2
17:44 26.6 °C 15.1 °C 1018.2 hPa SE 5.5 km/h 12.9 km/h 48% 0 mm 216 W/m2
17:49 26.5 °C 15.1 °C 1017.8 hPa SSE 4 km/h 11.3 km/h 48% 0 mm 200 W/m2
17:54 26.4 °C 15.1 °C 1017.8 hPa SSE 6.1 km/h 9.7 km/h 48.2% 0 mm 183 W/m2
17:59 26.3 °C 15.2 °C 1017.8 hPa SSE 3.2 km/h 9.7 km/h 49% 0 mm 167 W/m2
18:04 26.3 °C 15.2 °C 1017.8 hPa SSE 5.1 km/h 11.3 km/h 49% 0 mm 151 W/m2
18:09 26.3 °C 15.3 °C 1017.8 hPa SSE 2.7 km/h 8 km/h 49.5% 0 mm 137 W/m2
18:14 26.3 °C 15.5 °C 1017.8 hPa SSE 4.5 km/h 8 km/h 50% 0 mm 125 W/m2
18:19 26.3 °C 15.8 °C 1017.8 hPa ESE 3.9 km/h 8 km/h 51% 0 mm 111 W/m2
18:24 26.4 °C 15.7 °C 1017.8 hPa ESE 4.7 km/h 12.9 km/h 50.2% 0 mm 95 W/m2
18:29 26.3 °C 15.7 °C 1017.8 hPa SE 2.4 km/h 6.4 km/h 50.5% 0 mm 81 W/m2
18:34 26.2 °C 15.4 °C 1017.8 hPa ESE 4 km/h 8 km/h 50.5% 0 mm 74 W/m2
18:39 26 °C 15.2 °C 1017.8 hPa ESE 4.3 km/h 11.3 km/h 50% 0 mm 63 W/m2
18:44 25.9 °C 15.1 °C 1017.8 hPa ESE 3.5 km/h 8 km/h 50% 0 mm 54 W/m2
18:49 25.9 °C 15.1 °C 1017.8 hPa ESE 4.7 km/h 8 km/h 50% 0 mm 44 W/m2
18:54 25.8 °C 15.4 °C 1017.8 hPa East 1.3 km/h 9.7 km/h 51.2% 0 mm 30 W/m2
18:59 25.7 °C 15.7 °C 1017.8 hPa ESE 0.3 km/h 3.2 km/h 52.2% 0 mm 21 W/m2
19:04 25.4 °C 15.6 °C 1017.8 hPa ESE 1.9 km/h 6.4 km/h 52.8% 0 mm 19 W/m2
19:08 25.1 °C 15.2 °C 1017.8 hPa ESE 0.3 km/h 4.8 km/h 52.8% 0 mm 16 W/m2
19:14 24.7 °C 15.1 °C 1017.8 hPa Calm   4.8 km/h 53.4% 0 mm 12 W/m2
19:19 24.4 °C 15.1 °C 1017.8 hPa Calm   4.8 km/h 54.6% 0 mm 11 W/m2
19:24 24.1 °C 15.2 °C 1017.8 hPa ESE 0.6 km/h 3.2 km/h 55.8% 0 mm 7 W/m2
19:29 23.7 °C 15.1 °C 1017.8 hPa Calm   3.2 km/h 57% 0 mm 0 W/m2
19:34 23.4 °C 15.1 °C 1017.8 hPa ESE 0.3 km/h 3.2 km/h 57.8% 0 mm 0 W/m2
19:39 23.2 °C 15 °C 1017.8 hPa East 3.2 km/h 8 km/h 58.2% 0 mm 0 W/m2
19:44 22.9 °C 14.9 °C 1018.2 hPa East 0.3 km/h 6.4 km/h 58.8% 0 mm 0 W/m2
19:49 22.7 °C 14.7 °C 1018.2 hPa East 0.8 km/h 8 km/h 59.2% 0 mm 0 W/m2
19:54 22.4 °C 14.8 °C 1018.2 hPa ESE 0.8 km/h 3.2 km/h 60% 0 mm 0 W/m2
19:59 22.3 °C 14.8 °C 1018.2 hPa ESE 0.8 km/h 3.2 km/h 60.8% 0 mm 0 W/m2
20:04 22.1 °C 14.8 °C 1018.2 hPa Calm     61.4% 0 mm 0 W/m2
20:09 21.9 °C 14.8 °C 1018.2 hPa Calm     62% 0 mm 0 W/m2
20:14 21.7 °C 14.8 °C 1018.2 hPa ESE 0.3 km/h 1.6 km/h 62.8% 0 mm 0 W/m2
20:19 21.5 °C 14.7 °C 1018.2 hPa Calm   3.2 km/h 63.2% 0 mm 0 W/m2
20:24 21.3 °C 14.8 °C 1018.2 hPa Calm     64% 0 mm 0 W/m2
20:28 21.3 °C 14.7 °C 1018.2 hPa Calm     64% 0 mm 0 W/m2
20:34 21.2 °C 14.7 °C 1018.2 hPa Calm     64.8% 0 mm 0 W/m2
20:39 20.9 °C 14.7 °C 1018.2 hPa Calm     65.4% 0 mm 0 W/m2
20:44 20.7 °C 14.7 °C 1018.5 hPa Calm     66.2% 0 mm 0 W/m2
20:49 20.5 °C 14.7 °C 1018.5 hPa Calm     67.4% 0 mm 0 W/m2
20:54 20.2 °C 14.6 °C 1018.5 hPa Calm     68.2% 0 mm 0 W/m2
20:59 19.9 °C 14.6 °C 1018.2 hPa Calm     69% 0 mm 0 W/m2
21:04 19.8 °C 14.4 °C 1018.5 hPa Calm     69% 0 mm 0 W/m2
21:09 19.7 °C 14.6 °C 1018.5 hPa Calm     70% 0 mm 0 W/m2
21:14 19.4 °C 14.5 °C 1018.5 hPa Calm   3.2 km/h 71% 0 mm 0 W/m2
21:19 19.1 °C 14.2 °C 1018.5 hPa ESE 0.6 km/h 3.2 km/h 71.4% 0 mm 0 W/m2
21:24 18.8 °C 14.1 °C 1018.5 hPa Calm   1.6 km/h 72% 0 mm 0 W/m2
21:29 18.6 °C 14 °C 1018.5 hPa Calm     72.6% 0 mm 0 W/m2
21:34 18.4 °C 14 °C 1018.5 hPa Calm     73% 0 mm 0 W/m2
21:39 18.3 °C 13.9 °C 1018.2 hPa Calm     73% 0 mm 0 W/m2
21:44 18.3 °C 13.8 °C 1018.2 hPa Calm     73% 0 mm 0 W/m2
21:49 18.2 °C 13.9 °C 1018.2 hPa Calm     73.8% 0 mm 0 W/m2
21:54 18.1 °C 13.8 °C 1018.2 hPa Calm     74% 0 mm 0 W/m2
21:59 17.9 °C 13.8 °C 1018.2 hPa Calm     74% 0 mm 0 W/m2
22:03 17.9 °C 13.7 °C 1018.2 hPa Calm     74% 0 mm 0 W/m2
22:09 17.8 °C 13.6 °C 1018.2 hPa Calm     74% 0 mm 0 W/m2
22:14 17.7 °C 13.6 °C 1018.2 hPa Calm     74.2% 0 mm 0 W/m2
22:19 17.7 °C 13.7 °C 1018.2 hPa Calm     75% 0 mm 0 W/m2
22:24 17.6 °C 13.6 °C 1018.2 hPa Calm     75% 0 mm 0 W/m2
22:29 17.4 °C 13.4 °C 1018.2 hPa ESE 1 km/h 3.2 km/h 75% 0 mm 0 W/m2
22:34 17.3 °C 13.3 °C 1018.2 hPa ESE 1.9 km/h 4.8 km/h 75% 0 mm 0 W/m2
22:39 17.2 °C 13.2 °C 1018.2 hPa ESE 2.1 km/h 4.8 km/h 75% 0 mm 0 W/m2
22:44 17.2 °C 13.2 °C 1017.8 hPa ESE 0.8 km/h 3.2 km/h 75% 0 mm 0 W/m2
22:49 17.1 °C 13.1 °C 1017.8 hPa ESE 0.3 km/h 3.2 km/h 75% 0 mm 0 W/m2
22:54 17.1 °C 13.2 °C 1017.8 hPa Calm   3.2 km/h 75.8% 0 mm 0 W/m2
22:59 17 °C 13.2 °C 1017.8 hPa Calm   1.6 km/h 76% 0 mm 0 W/m2
23:04 17 °C 13.2 °C 1017.8 hPa Calm     76% 0 mm 0 W/m2
23:09 16.9 °C 13 °C 1017.8 hPa Calm     75.4% 0 mm 0 W/m2
23:14 16.9 °C 12.9 °C 1017.8 hPa ESE 0.3 km/h 3.2 km/h 75% 0 mm 0 W/m2
23:19 16.9 °C 12.9 °C 1017.8 hPa ESE 0.3 km/h 3.2 km/h 75.2% 0 mm 0 W/m2
23:24 16.9 °C 13.1 °C 1017.8 hPa Calm   3.2 km/h 75.8% 0 mm 0 W/m2
23:29 16.9 °C 13.1 °C 1017.8 hPa Calm     76% 0 mm 0 W/m2
23:33 16.8 °C 13 °C 1017.8 hPa Calm     76% 0 mm 0 W/m2
23:39 16.8 °C 13 °C 1017.8 hPa Calm     76% 0 mm 0 W/m2
23:44 16.8 °C 12.9 °C 1017.8 hPa Calm     76% 0 mm 0 W/m2
23:49 16.7 °C 12.9 °C 1017.8 hPa ESE 1 km/h 3.2 km/h 76% 0 mm 0 W/m2
23:54 16.7 °C 12.9 °C 1017.8 hPa ESE 0.3 km/h 3.2 km/h 76% 0 mm 0 W/m2
23:59 16.7 °C 12.8 °C 1017.8 hPa Calm   3.2 km/h 76% 0 mm 0 W/m2
Bath Spa Weather
Compliments of Weather Underground - 2 mb